sensor_id;sensor_type;location;lat;lon;timestamp;pressure;altitude;pressure_sealevel;temperature;humidity
18022;BME280;9136;48.822;7.966;2022-07-05T00:00:47;100536.44;;;16.17;100.00
18022;BME280;9136;48.822;7.966;2022-07-05T00:03:36;100532.38;;;16.10;100.00
18022;BME280;9136;48.822;7.966;2022-07-05T00:06:24;100531.94;;;16.02;100.00
18022;BME280;9136;48.822;7.966;2022-07-05T00:09:12;100557.50;;;16.03;100.00
18022;BME280;9136;48.822;7.966;2022-07-05T00:12:00;100543.06;;;16.09;100.00
18022;BME280;9136;48.822;7.966;2022-07-05T00:14:48;100541.31;;;15.90;100.00
18022;BME280;9136;48.822;7.966;2022-07-05T00:17:36;100534.88;;;15.96;100.00
18022;BME280;9136;48.822;7.966;2022-07-05T00:20:25;100543.38;;;16.02;100.00
18022;BME280;9136;48.822;7.966;2022-07-05T00:23:13;100524.16;;;15.80;100.00
18022;BME280;9136;48.822;7.966;2022-07-05T00:26:01;100534.31;;;15.89;100.00
18022;BME280;9136;48.822;7.966;2022-07-05T00:28:49;100541.41;;;15.89;100.00
18022;BME280;9136;48.822;7.966;2022-07-05T00:31:36;100523.47;;;15.77;100.00
18022;BME280;9136;48.822;7.966;2022-07-05T00:34:24;100542.25;;;15.89;100.00
18022;BME280;9136;48.822;7.966;2022-07-05T00:37:13;100517.31;;;15.76;100.00
18022;BME280;9136;48.822;7.966;2022-07-05T00:40:02;100521.44;;;15.82;100.00
18022;BME280;9136;48.822;7.966;2022-07-05T00:42:50;100530.97;;;15.86;100.00
18022;BME280;9136;48.822;7.966;2022-07-05T00:45:38;100516.59;;;15.72;100.00
18022;BME280;9136;48.822;7.966;2022-07-05T00:48:25;100536.06;;;15.71;100.00
18022;BME280;9136;48.822;7.966;2022-07-05T00:51:13;100542.09;;;15.75;100.00
18022;BME280;9136;48.822;7.966;2022-07-05T00:54:06;100536.78;;;15.75;100.00
18022;BME280;9136;48.822;7.966;2022-07-05T00:56:56;100514.56;;;15.60;100.00
18022;BME280;9136;48.822;7.966;2022-07-05T00:59:43;100547.72;;;15.86;100.00
18022;BME280;9136;48.822;7.966;2022-07-05T01:02:31;100537.09;;;15.69;100.00
18022;BME280;9136;48.822;7.966;2022-07-05T01:05:19;100551.97;;;15.71;100.00
18022;BME280;9136;48.822;7.966;2022-07-05T01:08:09;100521.88;;;15.54;100.00
18022;BME280;9136;48.822;7.966;2022-07-05T01:10:59;100541.81;;;15.62;100.00
18022;BME280;9136;48.822;7.966;2022-07-05T01:13:47;100540.81;;;15.65;100.00
18022;BME280;9136;48.822;7.966;2022-07-05T01:16:37;100547.06;;;15.64;100.00
18022;BME280;9136;48.822;7.966;2022-07-05T01:19:25;100553.25;;;15.63;100.00
18022;BME280;9136;48.822;7.966;2022-07-05T01:22:17;100536.06;;;15.53;100.00
18022;BME280;9136;48.822;7.966;2022-07-05T01:25:07;100547.09;;;15.62;100.00
18022;BME280;9136;48.822;7.966;2022-07-05T01:27:58;100525.88;;;15.45;100.00
18022;BME280;9136;48.822;7.966;2022-07-05T01:30:47;100553.38;;;15.60;100.00
18022;BME280;9136;48.822;7.966;2022-07-05T01:33:35;100550.91;;;15.57;100.00
18022;BME280;9136;48.822;7.966;2022-07-05T01:36:23;100531.22;;;15.43;100.00
18022;BME280;9136;48.822;7.966;2022-07-05T01:39:11;100545.09;;;15.49;100.00
18022;BME280;9136;48.822;7.966;2022-07-05T01:42:01;100529.50;;;15.24;100.00
18022;BME280;9136;48.822;7.966;2022-07-05T01:44:48;100543.47;;;15.27;100.00
18022;BME280;9136;48.822;7.966;2022-07-05T01:47:38;100530.31;;;15.07;100.00
18022;BME280;9136;48.822;7.966;2022-07-05T01:50:34;100552.91;;;15.14;100.00
18022;BME280;9136;48.822;7.966;2022-07-05T01:53:23;100536.38;;;14.90;100.00
18022;BME280;9136;48.822;7.966;2022-07-05T01:56:11;100570.53;;;14.95;100.00
18022;BME280;9136;48.822;7.966;2022-07-05T01:59:00;100539.44;;;14.81;100.00
18022;BME280;9136;48.822;7.966;2022-07-05T02:01:48;100537.06;;;14.75;100.00
18022;BME280;9136;48.822;7.966;2022-07-05T02:04:37;100534.06;;;14.82;100.00
18022;BME280;9136;48.822;7.966;2022-07-05T02:07:24;100545.59;;;14.81;100.00
18022;BME280;9136;48.822;7.966;2022-07-05T02:10:12;100529.97;;;14.75;100.00
18022;BME280;9136;48.822;7.966;2022-07-05T02:13:00;100548.28;;;14.80;100.00
18022;BME280;9136;48.822;7.966;2022-07-05T02:15:49;100563.00;;;14.85;100.00
18022;BME280;9136;48.822;7.966;2022-07-05T02:18:37;100553.22;;;14.69;100.00
18022;BME280;9136;48.822;7.966;2022-07-05T02:21:25;100535.69;;;14.46;100.00
18022;BME280;9136;48.822;7.966;2022-07-05T02:24:12;100546.31;;;14.44;100.00
18022;BME280;9136;48.822;7.966;2022-07-05T02:27:00;100560.09;;;14.52;100.00
18022;BME280;9136;48.822;7.966;2022-07-05T02:29:48;100536.88;;;14.39;100.00
18022;BME280;9136;48.822;7.966;2022-07-05T02:32:37;100539.56;;;14.37;100.00
18022;BME280;9136;48.822;7.966;2022-07-05T02:35:25;100550.09;;;14.39;100.00
18022;BME280;9136;48.822;7.966;2022-07-05T02:38:13;100557.34;;;14.33;100.00
18022;BME280;9136;48.822;7.966;2022-07-05T02:41:03;100539.00;;;14.30;100.00
18022;BME280;9136;48.822;7.966;2022-07-05T02:43:51;100549.94;;;14.42;100.00
18022;BME280;9136;48.822;7.966;2022-07-05T02:46:39;100549.34;;;14.35;100.00
18022;BME280;9136;48.822;7.966;2022-07-05T02:49:28;100571.88;;;14.44;100.00
18022;BME280;9136;48.822;7.966;2022-07-05T02:52:16;100579.22;;;14.37;100.00
18022;BME280;9136;48.822;7.966;2022-07-05T02:55:05;100540.56;;;14.14;100.00
18022;BME280;9136;48.822;7.966;2022-07-05T02:57:53;100563.41;;;14.15;100.00
18022;BME280;9136;48.822;7.966;2022-07-05T03:00:40;100550.41;;;14.11;100.00
18022;BME280;9136;48.822;7.966;2022-07-05T03:03:28;100541.47;;;13.93;100.00
18022;BME280;9136;48.822;7.966;2022-07-05T03:06:17;100572.03;;;13.98;100.00
18022;BME280;9136;48.822;7.966;2022-07-05T03:09:05;100564.38;;;13.70;100.00
18022;BME280;9136;48.822;7.966;2022-07-05T03:11:53;100575.47;;;13.79;100.00
18022;BME280;9136;48.822;7.966;2022-07-05T03:14:41;100559.16;;;13.69;100.00
18022;BME280;9136;48.822;7.966;2022-07-05T03:17:28;100571.03;;;13.81;100.00
18022;BME280;9136;48.822;7.966;2022-07-05T03:20:17;100558.28;;;13.68;100.00
18022;BME280;9136;48.822;7.966;2022-07-05T03:23:06;100581.03;;;13.72;100.00
18022;BME280;9136;48.822;7.966;2022-07-05T03:25:53;100571.56;;;13.67;100.00
18022;BME280;9136;48.822;7.966;2022-07-05T03:28:41;100584.81;;;13.65;100.00
18022;BME280;9136;48.822;7.966;2022-07-05T03:31:29;100570.44;;;13.51;100.00
18022;BME280;9136;48.822;7.966;2022-07-05T03:34:18;100570.44;;;13.51;100.00
18022;BME280;9136;48.822;7.966;2022-07-05T03:37:06;100574.34;;;13.40;100.00
18022;BME280;9136;48.822;7.966;2022-07-05T03:39:55;100582.09;;;13.45;100.00
18022;BME280;9136;48.822;7.966;2022-07-05T03:42:42;100586.22;;;13.52;100.00
18022;BME280;9136;48.822;7.966;2022-07-05T03:45:30;100602.56;;;13.62;100.00
18022;BME280;9136;48.822;7.966;2022-07-05T03:48:18;100620.69;;;13.71;100.00
18022;BME280;9136;48.822;7.966;2022-07-05T03:51:06;100599.06;;;13.61;100.00
18022;BME280;9136;48.822;7.966;2022-07-05T03:53:54;100617.84;;;13.75;100.00
18022;BME280;9136;48.822;7.966;2022-07-05T03:56:43;100630.63;;;13.86;100.00
18022;BME280;9136;48.822;7.966;2022-07-05T03:59:30;100627.94;;;13.88;100.00
18022;BME280;9136;48.822;7.966;2022-07-05T04:02:18;100634.63;;;13.96;100.00
18022;BME280;9136;48.822;7.966;2022-07-05T04:05:07;100613.56;;;13.95;100.00
18022;BME280;9136;48.822;7.966;2022-07-05T04:07:55;100617.13;;;13.94;100.00
18022;BME280;9136;48.822;7.966;2022-07-05T04:10:43;100626.78;;;13.95;100.00
18022;BME280;9136;48.822;7.966;2022-07-05T04:13:32;100613.69;;;13.92;100.00
18022;BME280;9136;48.822;7.966;2022-07-05T04:16:20;100620.44;;;13.99;100.00
18022;BME280;9136;48.822;7.966;2022-07-05T04:19:08;100633.16;;;14.11;100.00
18022;BME280;9136;48.822;7.966;2022-07-05T04:21:56;100634.56;;;14.20;100.00
18022;BME280;9136;48.822;7.966;2022-07-05T04:24:44;100610.63;;;14.02;100.00
18022;BME280;9136;48.822;7.966;2022-07-05T04:27:50;100643.78;;;14.31;100.00
18022;BME280;9136;48.822;7.966;2022-07-05T04:30:40;100620.53;;;14.18;100.00
18022;BME280;9136;48.822;7.966;2022-07-05T04:33:28;100648.53;;;14.44;100.00
18022;BME280;9136;48.822;7.966;2022-07-05T04:36:15;100643.84;;;14.52;100.00
18022;BME280;9136;48.822;7.966;2022-07-05T04:39:04;100614.03;;;14.48;100.00
18022;BME280;9136;48.822;7.966;2022-07-05T04:41:52;100644.75;;;14.71;100.00
18022;BME280;9136;48.822;7.966;2022-07-05T04:44:39;100653.22;;;14.79;100.00
18022;BME280;9136;48.822;7.966;2022-07-05T04:47:28;100616.78;;;14.66;100.00
18022;BME280;9136;48.822;7.966;2022-07-05T04:50:16;100620.81;;;14.74;100.00
18022;BME280;9136;48.822;7.966;2022-07-05T04:53:06;100650.75;;;14.95;100.00
18022;BME280;9136;48.822;7.966;2022-07-05T04:55:54;100637.69;;;14.92;100.00
18022;BME280;9136;48.822;7.966;2022-07-05T04:58:41;100639.06;;;15.01;100.00
18022;BME280;9136;48.822;7.966;2022-07-05T05:01:29;100660.06;;;15.24;100.00
18022;BME280;9136;48.822;7.966;2022-07-05T05:04:18;100637.47;;;15.17;100.00
18022;BME280;9136;48.822;7.966;2022-07-05T05:07:06;100625.94;;;15.18;100.00
18022;BME280;9136;48.822;7.966;2022-07-05T05:09:54;100631.59;;;15.29;100.00
18022;BME280;9136;48.822;7.966;2022-07-05T05:12:42;100649.38;;;15.46;100.00
18022;BME280;9136;48.822;7.966;2022-07-05T05:15:30;100634.97;;;15.33;100.00
18022;BME280;9136;48.822;7.966;2022-07-05T05:18:18;100640.00;;;15.58;100.00
18022;BME280;9136;48.822;7.966;2022-07-05T05:21:14;100654.56;;;15.87;100.00
18022;BME280;9136;48.822;7.966;2022-07-05T05:24:02;100650.97;;;15.88;100.00
18022;BME280;9136;48.822;7.966;2022-07-05T05:26:50;100647.03;;;15.96;100.00
18022;BME280;9136;48.822;7.966;2022-07-05T05:29:38;100641.84;;;16.12;100.00
18022;BME280;9136;48.822;7.966;2022-07-05T05:32:26;100632.19;;;16.28;100.00
18022;BME280;9136;48.822;7.966;2022-07-05T05:35:14;100658.44;;;16.52;100.00
18022;BME280;9136;48.822;7.966;2022-07-05T05:38:09;100664.91;;;16.64;100.00
18022;BME280;9136;48.822;7.966;2022-07-05T05:40:57;100661.66;;;16.76;100.00
18022;BME280;9136;48.822;7.966;2022-07-05T05:43:45;100662.59;;;16.75;100.00
18022;BME280;9136;48.822;7.966;2022-07-05T05:46:33;100650.47;;;16.69;100.00
18022;BME280;9136;48.822;7.966;2022-07-05T05:49:20;100671.69;;;16.86;100.00
18022;BME280;9136;48.822;7.966;2022-07-05T05:52:08;100681.84;;;16.96;100.00
18022;BME280;9136;48.822;7.966;2022-07-05T05:54:57;100678.59;;;16.91;100.00
18022;BME280;9136;48.822;7.966;2022-07-05T05:57:45;100666.00;;;16.77;100.00
18022;BME280;9136;48.822;7.966;2022-07-05T06:00:33;100681.16;;;16.92;100.00
18022;BME280;9136;48.822;7.966;2022-07-05T06:03:23;100679.28;;;16.94;100.00
18022;BME280;9136;48.822;7.966;2022-07-05T06:06:12;100684.78;;;17.07;100.00
18022;BME280;9136;48.822;7.966;2022-07-05T06:09:00;100698.00;;;17.08;100.00
18022;BME280;9136;48.822;7.966;2022-07-05T06:11:49;100672.38;;;17.07;100.00
18022;BME280;9136;48.822;7.966;2022-07-05T06:14:37;100666.81;;;17.29;100.00
18022;BME280;9136;48.822;7.966;2022-07-05T06:17:25;100696.50;;;17.53;100.00
18022;BME280;9136;48.822;7.966;2022-07-05T06:20:15;100667.09;;;17.40;100.00
18022;BME280;9136;48.822;7.966;2022-07-05T06:23:04;100691.28;;;17.52;100.00
18022;BME280;9136;48.822;7.966;2022-07-05T06:25:53;100696.69;;;17.66;100.00
18022;BME280;9136;48.822;7.966;2022-07-05T06:28:56;100705.41;;;17.85;100.00
18022;BME280;9136;48.822;7.966;2022-07-05T06:31:48;100713.56;;;17.98;100.00
18022;BME280;9136;48.822;7.966;2022-07-05T06:41:17;100710.38;;;18.23;100.00
18022;BME280;9136;48.822;7.966;2022-07-05T06:44:09;100726.16;;;18.42;100.00
18022;BME280;9136;48.822;7.966;2022-07-05T06:47:00;100703.69;;;18.31;100.00
18022;BME280;9136;48.822;7.966;2022-07-05T06:49:48;100702.66;;;18.34;94.12
18022;BME280;9136;48.822;7.966;2022-07-05T06:52:41;100709.75;;;18.49;100.00
18022;BME280;9136;48.822;7.966;2022-07-05T06:55:29;100732.78;;;18.66;100.00
18022;BME280;9136;48.822;7.966;2022-07-05T06:58:17;100708.81;;;18.66;100.00
18022;BME280;9136;48.822;7.966;2022-07-05T07:01:08;100700.00;;;18.80;100.00
18022;BME280;9136;48.822;7.966;2022-07-05T07:04:03;100726.59;;;19.10;100.00
18022;BME280;9136;48.822;7.966;2022-07-05T07:07:01;100716.25;;;19.20;100.00
18022;BME280;9136;48.822;7.966;2022-07-05T07:09:49;100720.75;;;19.33;100.00
18022;BME280;9136;48.822;7.966;2022-07-05T07:12:36;100707.81;;;19.41;95.07
18022;BME280;9136;48.822;7.966;2022-07-05T07:15:26;100701.16;;;19.49;87.51
18022;BME280;9136;48.822;7.966;2022-07-05T07:18:18;100719.28;;;19.72;92.54
18022;BME280;9136;48.822;7.966;2022-07-05T07:21:07;100727.94;;;19.90;75.80
18022;BME280;9136;48.822;7.966;2022-07-05T07:24:00;100731.53;;;20.03;82.57
18022;BME280;9136;48.822;7.966;2022-07-05T07:26:50;100709.91;;;19.93;79.83
18022;BME280;9136;48.822;7.966;2022-07-05T07:29:52;100714.28;;;20.09;74.24
18022;BME280;9136;48.822;7.966;2022-07-05T07:32:41;100736.56;;;20.35;89.22
18022;BME280;9136;48.822;7.966;2022-07-05T07:35:30;100737.38;;;20.37;74.03
18022;BME280;9136;48.822;7.966;2022-07-05T07:38:18;100738.41;;;20.48;82.42
18022;BME280;9136;48.822;7.966;2022-07-05T07:41:06;100742.72;;;20.64;90.34
18022;BME280;9136;48.822;7.966;2022-07-05T07:43:54;100742.59;;;20.65;75.54
18022;BME280;9136;48.822;7.966;2022-07-05T07:46:47;100733.97;;;20.74;78.55
18022;BME280;9136;48.822;7.966;2022-07-05T07:49:43;100741.38;;;20.83;82.05
18022;BME280;9136;48.822;7.966;2022-07-05T07:52:33;100755.44;;;21.12;75.37
18022;BME280;9136;48.822;7.966;2022-07-05T07:55:24;100749.28;;;21.25;70.55
18022;BME280;9136;48.822;7.966;2022-07-05T07:58:12;100759.88;;;21.39;73.47
18022;BME280;9136;48.822;7.966;2022-07-05T08:01:04;100742.56;;;21.32;72.19
18022;BME280;9136;48.822;7.966;2022-07-05T08:03:57;100736.69;;;21.52;71.99
18022;BME280;9136;48.822;7.966;2022-07-05T08:06:48;100737.13;;;21.71;73.30
18022;BME280;9136;48.822;7.966;2022-07-05T08:09:37;100758.91;;;21.78;65.64
18022;BME280;9136;48.822;7.966;2022-07-05T08:12:27;100752.59;;;21.79;66.82
18022;BME280;9136;48.822;7.966;2022-07-05T08:15:17;100746.91;;;21.96;66.40
18022;BME280;9136;48.822;7.966;2022-07-05T08:18:10;100737.81;;;22.12;66.08
18022;BME280;9136;48.822;7.966;2022-07-05T08:21:15;100730.81;;;22.22;67.27
18022;BME280;9136;48.822;7.966;2022-07-05T08:24:18;100746.94;;;22.33;59.43
18022;BME280;9136;48.822;7.966;2022-07-05T08:27:14;100730.03;;;22.33;65.92
18022;BME280;9136;48.822;7.966;2022-07-05T08:30:05;100740.78;;;22.44;71.74
18022;BME280;9136;48.822;7.966;2022-07-05T08:32:57;100746.56;;;22.50;67.81
18022;BME280;9136;48.822;7.966;2022-07-05T08:36:22;100756.59;;;22.60;57.56
18022;BME280;9136;48.822;7.966;2022-07-05T08:39:28;100750.94;;;22.75;54.72
18022;BME280;9136;48.822;7.966;2022-07-05T08:42:20;100756.25;;;22.88;54.33
18022;BME280;9136;48.822;7.966;2022-07-05T08:52:50;100745.50;;;23.23;49.52
18022;BME280;9136;48.822;7.966;2022-07-05T08:55:41;100746.03;;;23.28;49.84
18022;BME280;9136;48.822;7.966;2022-07-05T08:58:34;100718.63;;;23.36;51.60
18022;BME280;9136;48.822;7.966;2022-07-05T09:01:24;100725.78;;;23.24;61.98
18022;BME280;9136;48.822;7.966;2022-07-05T09:04:24;100716.41;;;23.41;60.06
18022;BME280;9136;48.822;7.966;2022-07-05T09:07:20;100710.81;;;23.33;61.76
18022;BME280;9136;48.822;7.966;2022-07-05T09:10:11;100731.91;;;23.37;53.79
18022;BME280;9136;48.822;7.966;2022-07-05T09:12:59;100739.38;;;23.56;57.83
18022;BME280;9136;48.822;7.966;2022-07-05T09:15:49;100730.63;;;23.65;48.32
18022;BME280;9136;48.822;7.966;2022-07-05T09:18:47;100729.16;;;23.95;56.15
18022;BME280;9136;48.822;7.966;2022-07-05T09:21:41;100729.88;;;23.97;52.49
18022;BME280;9136;48.822;7.966;2022-07-05T09:24:56;100746.44;;;24.36;50.16
18022;BME280;9136;48.822;7.966;2022-07-05T09:28:06;100731.91;;;24.38;59.24
18022;BME280;9136;48.822;7.966;2022-07-05T09:31:16;100721.59;;;24.54;60.06
18022;BME280;9136;48.822;7.966;2022-07-05T09:34:28;100739.53;;;24.86;51.84
18022;BME280;9136;48.822;7.966;2022-07-05T09:38:04;100724.13;;;24.88;48.58
18022;BME280;9136;48.822;7.966;2022-07-05T09:42:36;100723.13;;;24.89;44.31
18022;BME280;9136;48.822;7.966;2022-07-05T09:44:29;100730.25;;;24.58;44.00
18022;BME280;9136;48.822;7.966;2022-07-05T09:47:42;100731.25;;;24.46;47.65
18022;BME280;9136;48.822;7.966;2022-07-05T09:50:36;100739.63;;;24.64;44.40
18022;BME280;9136;48.822;7.966;2022-07-05T09:53:54;100711.91;;;24.63;51.51
18022;BME280;9136;48.822;7.966;2022-07-05T09:57:04;100745.19;;;24.83;51.09
18022;BME280;9136;48.822;7.966;2022-07-05T10:04:00;100742.91;;;25.41;50.14
18022;BME280;9136;48.822;7.966;2022-07-05T10:07:10;100717.25;;;25.37;44.63
18022;BME280;9136;48.822;7.966;2022-07-05T10:12:06;100735.78;;;25.09;43.28
18022;BME280;9136;48.822;7.966;2022-07-05T10:16:12;100726.88;;;25.60;54.49
18022;BME280;9136;48.822;7.966;2022-07-05T10:43:01;100719.09;;;24.95;39.62
18022;BME280;9136;48.822;7.966;2022-07-05T10:46:38;100715.00;;;25.11;38.97
18022;BME280;9136;48.822;7.966;2022-07-05T10:54:02;100728.91;;;25.99;41.38
18022;BME280;9136;48.822;7.966;2022-07-05T10:57:29;100735.34;;;26.17;37.69
18022;BME280;9136;48.822;7.966;2022-07-05T11:08:34;100725.03;;;27.28;35.34
18022;BME280;9136;48.822;7.966;2022-07-05T11:12:22;100708.38;;;30.34;34.60
18022;BME280;9136;48.822;7.966;2022-07-05T11:19:07;100709.00;;;32.91;26.68
18022;BME280;9136;48.822;7.966;2022-07-05T11:22:00;100719.81;;;33.22;24.62
18022;BME280;9136;48.822;7.966;2022-07-05T11:24:48;100727.84;;;33.68;26.60
18022;BME280;9136;48.822;7.966;2022-07-05T11:27:37;100706.66;;;34.14;28.48
18022;BME280;9136;48.822;7.966;2022-07-05T11:30:50;100720.38;;;34.57;23.93
18022;BME280;9136;48.822;7.966;2022-07-05T11:33:40;100712.25;;;35.69;22.95
18022;BME280;9136;48.822;7.966;2022-07-05T11:36:31;100703.06;;;35.76;27.03
18022;BME280;9136;48.822;7.966;2022-07-05T11:39:19;100697.16;;;35.73;22.10
18022;BME280;9136;48.822;7.966;2022-07-05T11:42:08;100683.56;;;36.54;23.25
18022;BME280;9136;48.822;7.966;2022-07-05T11:44:56;100705.19;;;34.90;24.21
18022;BME280;9136;48.822;7.966;2022-07-05T11:47:45;100677.34;;;33.13;26.43
18022;BME280;9136;48.822;7.966;2022-07-05T11:50:34;100689.78;;;33.45;27.16
18022;BME280;9136;48.822;7.966;2022-07-05T11:53:27;100663.66;;;34.95;27.13
18022;BME280;9136;48.822;7.966;2022-07-05T11:56:15;100662.16;;;35.55;24.35
18022;BME280;9136;48.822;7.966;2022-07-05T11:59:18;100681.38;;;33.02;25.04
18022;BME280;9136;48.822;7.966;2022-07-05T12:07:28;100654.03;;;29.17;32.51
18022;BME280;9136;48.822;7.966;2022-07-05T12:30:19;100666.56;;;37.83;20.15
18022;BME280;9136;48.822;7.966;2022-07-05T12:33:09;100658.72;;;36.62;21.74
18022;BME280;9136;48.822;7.966;2022-07-05T12:35:58;100670.09;;;37.96;22.70
18022;BME280;9136;48.822;7.966;2022-07-05T12:38:46;100639.25;;;36.04;21.33
18022;BME280;9136;48.822;7.966;2022-07-05T12:41:41;100652.16;;;37.22;20.64
18022;BME280;9136;48.822;7.966;2022-07-05T12:44:32;100675.75;;;38.01;20.54
18022;BME280;9136;48.822;7.966;2022-07-05T12:47:21;100651.78;;;37.90;20.20
18022;BME280;9136;48.822;7.966;2022-07-05T12:50:09;100663.72;;;37.51;20.93
18022;BME280;9136;48.822;7.966;2022-07-05T12:53:03;100662.53;;;36.94;21.49
18022;BME280;9136;48.822;7.966;2022-07-05T12:56:06;100648.22;;;36.59;22.25
18022;BME280;9136;48.822;7.966;2022-07-05T12:59:12;100654.38;;;36.06;22.20
18022;BME280;9136;48.822;7.966;2022-07-05T13:02:02;100661.47;;;36.49;22.22
18022;BME280;9136;48.822;7.966;2022-07-05T13:04:54;100653.06;;;36.70;21.64
18022;BME280;9136;48.822;7.966;2022-07-05T13:07:42;100644.81;;;36.44;22.56
18022;BME280;9136;48.822;7.966;2022-07-05T13:10:48;100644.59;;;37.38;20.18
18022;BME280;9136;48.822;7.966;2022-07-05T13:17:49;100640.06;;;38.96;19.20
18022;BME280;9136;48.822;7.966;2022-07-05T13:20:39;100628.16;;;35.64;20.82
18022;BME280;9136;48.822;7.966;2022-07-05T13:23:41;100638.25;;;36.31;20.14
18022;BME280;9136;48.822;7.966;2022-07-05T13:26:35;100620.72;;;35.51;21.71
18022;BME280;9136;48.822;7.966;2022-07-05T13:29:37;100625.34;;;37.44;23.14
18022;BME280;9136;48.822;7.966;2022-07-05T13:33:23;100626.38;;;38.01;20.42
18022;BME280;9136;48.822;7.966;2022-07-05T13:36:35;100632.41;;;38.48;18.44
18022;BME280;9136;48.822;7.966;2022-07-05T13:39:56;100620.88;;;38.71;19.83
18022;BME280;9136;48.822;7.966;2022-07-05T13:46:37;100640.38;;;39.31;19.17
18022;BME280;9136;48.822;7.966;2022-07-05T13:49:33;100640.38;;;40.16;17.45
18022;BME280;9136;48.822;7.966;2022-07-05T13:52:37;100644.63;;;36.91;20.70
18022;BME280;9136;48.822;7.966;2022-07-05T13:55:25;100632.22;;;32.43;25.41
18022;BME280;9136;48.822;7.966;2022-07-05T13:58:20;100623.66;;;30.57;27.69
18022;BME280;9136;48.822;7.966;2022-07-05T14:01:08;100605.69;;;29.56;29.52
18022;BME280;9136;48.822;7.966;2022-07-05T14:04:01;100630.91;;;30.07;29.61
18022;BME280;9136;48.822;7.966;2022-07-05T14:06:52;100604.25;;;31.72;28.58
18022;BME280;9136;48.822;7.966;2022-07-05T14:09:49;100607.34;;;35.70;24.58
18022;BME280;9136;48.822;7.966;2022-07-05T14:16:01;100629.81;;;38.28;19.44
18022;BME280;9136;48.822;7.966;2022-07-05T14:18:49;100623.75;;;36.64;20.20
18022;BME280;9136;48.822;7.966;2022-07-05T14:21:37;100604.59;;;35.28;23.56
18022;BME280;9136;48.822;7.966;2022-07-05T14:24:25;100616.63;;;36.69;20.13
18022;BME280;9136;48.822;7.966;2022-07-05T14:27:44;100594.16;;;38.28;19.66
18022;BME280;9136;48.822;7.966;2022-07-05T14:32:14;100602.31;;;37.65;19.68
18022;BME280;9136;48.822;7.966;2022-07-05T14:33:52;100620.66;;;38.41;18.48
18022;BME280;9136;48.822;7.966;2022-07-05T14:37:05;100604.97;;;37.14;19.86
18022;BME280;9136;48.822;7.966;2022-07-05T14:40:52;100586.59;;;37.34;19.16
18022;BME280;9136;48.822;7.966;2022-07-05T14:44:13;100584.66;;;37.55;18.71
18022;BME280;9136;48.822;7.966;2022-07-05T14:50:57;100580.81;;;36.51;20.75
18022;BME280;9136;48.822;7.966;2022-07-05T15:13:14;100581.50;;;38.21;17.69
18022;BME280;9136;48.822;7.966;2022-07-05T15:15:52;100574.66;;;37.09;17.18
18022;BME280;9136;48.822;7.966;2022-07-05T15:18:30;100577.66;;;38.03;17.58
18022;BME280;9136;48.822;7.966;2022-07-05T15:21:37;100563.88;;;37.78;18.30
18022;BME280;9136;48.822;7.966;2022-07-05T15:24:40;100566.81;;;37.70;18.69
18022;BME280;9136;48.822;7.966;2022-07-05T15:31:28;100565.38;;;39.42;16.37
18022;BME280;9136;48.822;7.966;2022-07-05T15:38:33;100543.75;;;36.68;18.59
18022;BME280;9136;48.822;7.966;2022-07-05T15:41:35;100546.34;;;35.56;19.18
18022;BME280;9136;48.822;7.966;2022-07-05T15:44:23;100553.44;;;36.38;18.82
18022;BME280;9136;48.822;7.966;2022-07-05T15:47:13;100539.09;;;35.96;18.55
18022;BME280;9136;48.822;7.966;2022-07-05T15:50:01;100559.19;;;37.86;18.53
18022;BME280;9136;48.822;7.966;2022-07-05T15:52:49;100559.78;;;39.67;17.00
18022;BME280;9136;48.822;7.966;2022-07-05T15:55:37;100556.72;;;39.02;17.61
18022;BME280;9136;48.822;7.966;2022-07-05T15:58:25;100542.19;;;37.06;20.54
18022;BME280;9136;48.822;7.966;2022-07-05T16:01:13;100549.84;;;36.11;21.88
18022;BME280;9136;48.822;7.966;2022-07-05T16:04:02;100556.41;;;36.43;21.36
18022;BME280;9136;48.822;7.966;2022-07-05T16:06:50;100545.88;;;36.60;20.67
18022;BME280;9136;48.822;7.966;2022-07-05T16:09:38;100549.25;;;38.16;19.45
18022;BME280;9136;48.822;7.966;2022-07-05T16:12:27;100550.56;;;38.63;18.24
18022;BME280;9136;48.822;7.966;2022-07-05T16:15:15;100546.59;;;39.03;19.46
18022;BME280;9136;48.822;7.966;2022-07-05T16:18:17;100553.81;;;37.97;18.70
18022;BME280;9136;48.822;7.966;2022-07-05T16:21:06;100551.75;;;38.49;19.13
18022;BME280;9136;48.822;7.966;2022-07-05T16:23:55;100535.31;;;37.48;19.05
18022;BME280;9136;48.822;7.966;2022-07-05T16:26:43;100539.13;;;36.36;18.47
18022;BME280;9136;48.822;7.966;2022-07-05T16:29:31;100538.59;;;35.79;18.49
18022;BME280;9136;48.822;7.966;2022-07-05T16:32:19;100536.09;;;35.84;17.60
18022;BME280;9136;48.822;7.966;2022-07-05T16:35:07;100548.38;;;36.02;17.50
18022;BME280;9136;48.822;7.966;2022-07-05T16:37:57;100540.25;;;33.35;20.70
18022;BME280;9136;48.822;7.966;2022-07-05T16:40:45;100535.84;;;31.38;22.94
18022;BME280;9136;48.822;7.966;2022-07-05T16:43:33;100540.63;;;31.67;22.78
18022;BME280;9136;48.822;7.966;2022-07-05T16:46:22;100553.59;;;33.15;21.32
18022;BME280;9136;48.822;7.966;2022-07-05T16:49:12;100550.66;;;34.68;20.23
18022;BME280;9136;48.822;7.966;2022-07-05T17:50:02;100525.97;;;34.27;20.42
18022;BME280;9136;48.822;7.966;2022-07-05T17:52:52;100550.91;;;33.66;20.26
18022;BME280;9136;48.822;7.966;2022-07-05T17:55:40;100544.50;;;33.23;21.22
18022;BME280;9136;48.822;7.966;2022-07-05T17:58:31;100524.78;;;33.06;22.57
18022;BME280;9136;48.822;7.966;2022-07-05T18:01:19;100552.25;;;33.55;21.89
18022;BME280;9136;48.822;7.966;2022-07-05T18:04:08;100533.31;;;33.33;21.34
18022;BME280;9136;48.822;7.966;2022-07-05T18:06:58;100540.88;;;33.01;22.92
18022;BME280;9136;48.822;7.966;2022-07-05T18:09:49;100554.16;;;33.91;24.15
18022;BME280;9136;48.822;7.966;2022-07-05T18:12:37;100542.84;;;34.15;22.90
18022;BME280;9136;48.822;7.966;2022-07-05T18:15:25;100549.63;;;33.62;22.03